Terminal Aerodrome Forecast
Issued by NWS

Home | Current Version | Previous Version | Graphics & Text | Print | Product List | Glossary On
Versions: 1 2 3 4 5 6 7 8 9 10 11 12 13 14 15 16 17
941
FTUS43 KTOP 300520
TAFMHK
TAF
KMHK 300520Z 3006/3106 19003KT P6SM BKN250
     FM301700 17011KT P6SM SCT060=

USA.gov is the U.S. government's official web portal to all federal, state and local government web resources and services.